createdAt,value
2023-05-18T00:00:02.822Z,6.43
2023-05-18T00:02:31.426Z,6.41
2023-05-18T00:05:02.041Z,6.38
2023-05-18T00:07:33.991Z,6.34
2023-05-18T00:10:01.635Z,6.30
2023-05-18T00:12:28.292Z,6.29
2023-05-18T00:14:54.787Z,6.27
2023-05-18T00:17:21.879Z,6.26
2023-05-18T00:19:50.266Z,6.22
2023-05-18T00:22:18.801Z,6.17
2023-05-18T00:24:46.405Z,6.16
2023-05-18T00:27:13.240Z,6.15
2023-05-18T00:29:40.306Z,6.12
2023-05-18T00:32:07.132Z,6.10
2023-05-18T00:34:33.783Z,6.09
2023-05-18T00:37:00.439Z,6.06
2023-05-18T00:39:26.966Z,6.01
2023-05-18T00:41:53.507Z,6.00
2023-05-18T00:44:20.427Z,5.98
2023-05-18T00:46:46.990Z,5.94
2023-05-18T00:49:13.681Z,5.91
2023-05-18T00:51:41.080Z,5.90
2023-05-18T00:54:08.237Z,5.86
2023-05-18T00:56:36.500Z,5.84
2023-05-18T00:59:03.462Z,5.81
2023-05-18T01:01:34.409Z,5.78
2023-05-18T01:04:02.334Z,5.78
2023-05-18T01:06:32.794Z,5.75
2023-05-18T01:09:04.209Z,5.71
2023-05-18T01:11:51.920Z,5.69
2023-05-18T01:14:33.954Z,5.66
2023-05-18T01:17:17.158Z,5.64
2023-05-18T01:20:07.118Z,5.62
2023-05-18T01:22:50.774Z,5.61
2023-05-18T01:25:32.874Z,5.58
2023-05-18T01:28:06.268Z,5.56
2023-05-18T01:30:41.629Z,5.55
2023-05-18T01:33:13.171Z,5.54
2023-05-18T01:35:48.549Z,5.51
2023-05-18T01:38:21.072Z,5.51
2023-05-18T01:41:27.420Z,5.51
2023-05-18T01:44:17.706Z,5.47
2023-05-18T01:46:56.958Z,5.45
2023-05-18T01:49:32.625Z,5.44
2023-05-18T01:52:06.387Z,5.42
2023-05-18T01:54:34.112Z,5.40
2023-05-18T01:57:01.351Z,5.40
2023-05-18T01:59:28.162Z,5.38
2023-05-18T02:02:00.647Z,5.36
2023-05-18T02:04:28.102Z,5.34
2023-05-18T02:06:55.566Z,5.31
2023-05-18T02:09:22.948Z,5.29
2023-05-18T02:11:50.550Z,5.28
2023-05-18T02:14:17.117Z,5.26
2023-05-18T02:16:47.001Z,5.24
2023-05-18T02:19:14.755Z,5.24
2023-05-18T02:21:43.540Z,5.23
2023-05-18T02:24:10.650Z,5.21
2023-05-18T02:26:37.581Z,5.19
2023-05-18T02:29:09.387Z,5.18
2023-05-18T02:31:36.089Z,5.17
2023-05-18T02:34:02.665Z,5.15
2023-05-18T02:36:37.092Z,5.12
2023-05-18T02:39:07.655Z,5.11
2023-05-18T02:41:34.912Z,5.09
2023-05-18T02:44:03.385Z,5.07
2023-05-18T02:46:30.089Z,5.03
2023-05-18T02:48:57.248Z,5.03
2023-05-18T02:51:24.612Z,5.01
2023-05-18T02:53:51.740Z,4.99
2023-05-18T02:56:19.166Z,4.98
2023-05-18T02:58:57.604Z,4.95
2023-05-18T03:01:31.304Z,4.95
2023-05-18T03:03:58.214Z,4.94
2023-05-18T03:06:27.043Z,4.93
2023-05-18T03:08:55.014Z,4.90
2023-05-18T03:11:26.201Z,4.88
2023-05-18T03:13:52.996Z,4.86
2023-05-18T03:16:20.215Z,4.84
2023-05-18T03:18:47.139Z,4.81
2023-05-18T03:21:13.954Z,4.78
2023-05-18T03:23:40.791Z,4.77
2023-05-18T03:26:11.438Z,4.75
2023-05-18T03:28:39.332Z,4.73
2023-05-18T03:31:06.096Z,4.72
2023-05-18T03:33:33.374Z,4.71
2023-05-18T03:36:04.582Z,4.71
2023-05-18T03:38:31.877Z,4.70
2023-05-18T03:41:04.204Z,4.69
2023-05-18T03:43:32.385Z,4.69
2023-05-18T03:46:00.527Z,4.68
2023-05-18T03:48:27.732Z,4.68
2023-05-18T03:50:54.346Z,4.68
2023-05-18T03:53:21.560Z,4.67
2023-05-18T03:55:51.707Z,4.67
2023-05-18T03:58:22.430Z,4.67
2023-05-18T04:00:49.669Z,4.66
2023-05-18T04:03:16.568Z,4.65
2023-05-18T04:05:46.007Z,4.67
2023-05-18T04:08:14.777Z,4.67
2023-05-18T04:10:44.737Z,4.66
2023-05-18T04:13:12.751Z,4.68
2023-05-18T04:15:39.296Z,4.69
2023-05-18T04:18:05.901Z,4.74
2023-05-18T04:20:32.575Z,4.75
2023-05-18T04:23:00.694Z,4.78
2023-05-18T04:25:28.269Z,4.81
2023-05-18T04:27:56.309Z,4.83
2023-05-18T04:30:26.661Z,4.84
2023-05-18T04:32:54.687Z,4.86
2023-05-18T04:35:21.495Z,4.95
2023-05-18T04:37:48.031Z,5.07
2023-05-18T04:40:17.818Z,5.23
2023-05-18T04:42:47.720Z,5.31
2023-05-18T04:45:19.512Z,5.36
2023-05-18T04:47:53.452Z,5.46
2023-05-18T04:50:25.340Z,5.82
2023-05-18T04:52:52.389Z,6.12
2023-05-18T04:55:29.458Z,6.29
2023-05-18T04:58:05.840Z,6.46
2023-05-18T05:00:32.408Z,6.50
2023-05-18T05:02:59.366Z,6.58
2023-05-18T05:05:27.099Z,6.98
2023-05-18T05:07:55.734Z,7.88
2023-05-18T05:10:22.875Z,9.21
2023-05-18T05:12:50.862Z,10.70
2023-05-18T05:15:18.319Z,11.79
2023-05-18T05:17:49.687Z,12.62
2023-05-18T05:20:17.384Z,13.54
2023-05-18T05:22:44.032Z,14.03
2023-05-18T05:25:12.759Z,13.63
2023-05-18T05:27:39.391Z,13.69
2023-05-18T05:30:07.312Z,13.92
2023-05-18T05:32:36.677Z,13.55
2023-05-18T05:35:04.997Z,12.97
2023-05-18T05:37:32.105Z,11.95
2023-05-18T05:39:59.369Z,11.23
2023-05-18T05:42:26.777Z,10.63
2023-05-18T05:44:53.550Z,10.32
2023-05-18T05:47:20.449Z,10.12
2023-05-18T05:49:47.459Z,9.90
2023-05-18T05:52:14.100Z,9.84
2023-05-18T05:54:41.607Z,9.74
2023-05-18T05:57:09.683Z,9.69
2023-05-18T05:59:36.839Z,9.64
2023-05-18T06:02:03.526Z,9.56
2023-05-18T06:04:30.353Z,9.63
2023-05-18T06:06:57.505Z,9.67
2023-05-18T06:09:24.021Z,9.77
2023-05-18T06:11:50.551Z,9.92
2023-05-18T06:14:17.707Z,10.33
2023-05-18T06:16:44.842Z,10.56
2023-05-18T06:19:11.428Z,10.70
2023-05-18T06:21:37.975Z,10.85
2023-05-18T06:24:05.108Z,10.99
2023-05-18T06:26:54.503Z,11.00
2023-05-18T06:29:46.495Z,11.02
2023-05-18T06:32:22.796Z,11.04
2023-05-18T06:34:53.652Z,11.09
2023-05-18T06:37:21.298Z,11.18
2023-05-18T06:39:49.014Z,11.20
2023-05-18T06:42:15.536Z,11.16
2023-05-18T06:44:51.620Z,11.19
2023-05-18T06:47:21.323Z,11.42
2023-05-18T06:49:47.859Z,11.74
2023-05-18T06:52:15.379Z,12.02
2023-05-18T06:54:43.231Z,12.16
2023-05-18T06:57:09.863Z,12.33
2023-05-18T06:59:36.544Z,12.34
2023-05-18T07:02:04.395Z,12.43
2023-05-18T07:04:31.881Z,12.63
2023-05-18T07:06:58.398Z,12.70
2023-05-18T07:09:25.704Z,12.86
2023-05-18T07:11:52.293Z,12.89
2023-05-18T07:14:18.883Z,12.89
2023-05-18T07:16:47.242Z,12.76
2023-05-18T07:19:14.628Z,12.71
2023-05-18T07:21:41.324Z,12.58
2023-05-18T07:24:08.006Z,12.38
2023-05-18T07:26:34.574Z,12.30
2023-05-18T07:29:01.143Z,12.40
2023-05-18T07:31:27.798Z,12.41
2023-05-18T07:33:54.433Z,12.39
2023-05-18T07:36:21.279Z,12.46
2023-05-18T07:38:48.042Z,12.39
2023-05-18T07:41:14.608Z,12.46
2023-05-18T07:43:41.195Z,12.57
2023-05-18T07:46:07.695Z,12.68
2023-05-18T07:48:34.233Z,12.64
2023-05-18T07:51:00.706Z,12.66
2023-05-18T07:53:27.245Z,12.79
2023-05-18T07:55:53.971Z,12.99
2023-05-18T07:58:20.573Z,12.97
2023-05-18T08:00:47.196Z,13.03
2023-05-18T08:03:13.996Z,13.12
2023-05-18T08:05:40.665Z,12.92
2023-05-18T08:08:08.126Z,12.90
2023-05-18T08:10:34.619Z,12.84
2023-05-18T08:13:01.108Z,12.89
2023-05-18T08:15:27.570Z,12.97
2023-05-18T08:17:55.185Z,13.10
2023-05-18T08:20:21.969Z,13.29
2023-05-18T08:22:48.786Z,13.12
2023-05-18T08:25:15.370Z,13.31
2023-05-18T08:27:41.966Z,13.51
2023-05-18T08:30:09.252Z,13.53
2023-05-18T08:32:37.425Z,13.61
2023-05-18T08:35:08.363Z,13.77
2023-05-18T08:37:37.377Z,14.01
2023-05-18T08:40:07.743Z,14.46
2023-05-18T08:42:50.088Z,14.81
2023-05-18T08:46:01.602Z,15.07
2023-05-18T08:48:31.390Z,15.17
2023-05-18T08:50:58.709Z,15.27
2023-05-18T08:53:25.885Z,15.12
2023-05-18T08:55:54.388Z,14.99
2023-05-18T08:58:30.343Z,14.54
2023-05-18T09:00:57.988Z,14.40
2023-05-18T09:03:24.659Z,14.34
2023-05-18T09:05:52.606Z,14.71
2023-05-18T09:08:19.780Z,14.85
2023-05-18T09:10:48.428Z,14.89
2023-05-18T09:13:18.567Z,14.90
2023-05-18T09:15:45.122Z,15.29
2023-05-18T09:18:11.651Z,15.38
2023-05-18T09:20:38.601Z,15.39
2023-05-18T09:23:05.456Z,15.16
2023-05-18T09:25:35.092Z,15.16
2023-05-18T09:28:05.070Z,15.36
2023-05-18T09:30:40.186Z,15.36
2023-05-18T09:33:17.106Z,15.27
2023-05-18T09:35:47.154Z,15.33
2023-05-18T09:38:21.766Z,15.58
2023-05-18T09:40:50.054Z,15.72
2023-05-18T09:43:18.886Z,15.83
2023-05-18T09:45:48.416Z,15.79
2023-05-18T09:48:16.330Z,15.74
2023-05-18T09:50:46.246Z,15.76
2023-05-18T09:53:14.026Z,15.76
2023-05-18T09:55:49.049Z,15.67
2023-05-18T09:58:16.404Z,15.40
2023-05-18T10:00:56.746Z,15.52
2023-05-18T10:03:24.946Z,15.94
2023-05-18T10:05:51.856Z,16.17
2023-05-18T10:08:18.466Z,16.33
2023-05-18T10:10:47.097Z,16.33
2023-05-18T10:13:17.960Z,16.41
2023-05-18T10:15:54.136Z,16.58
2023-05-18T10:18:32.449Z,16.46
2023-05-18T10:21:01.109Z,16.50
2023-05-18T10:23:31.936Z,16.55
2023-05-18T10:25:59.645Z,16.45
2023-05-18T10:28:30.778Z,16.22
2023-05-18T10:30:59.206Z,16.65
2023-05-18T10:33:29.414Z,16.88
2023-05-18T10:35:56.356Z,16.87
2023-05-18T10:38:25.197Z,16.87
2023-05-18T10:41:02.943Z,16.99
2023-05-18T10:43:29.418Z,17.23
2023-05-18T10:46:00.438Z,17.44
2023-05-18T10:48:29.010Z,17.52
2023-05-18T10:50:57.492Z,17.65
2023-05-18T10:53:31.601Z,17.77
2023-05-18T10:55:58.170Z,17.68
2023-05-18T10:58:29.422Z,17.85
2023-05-18T11:00:57.903Z,18.14
2023-05-18T11:03:27.076Z,18.24
2023-05-18T11:06:10.806Z,18.06
2023-05-18T11:08:50.288Z,18.10
2023-05-18T11:11:19.249Z,18.16
2023-05-18T11:13:51.167Z,18.37
2023-05-18T11:16:19.311Z,18.46
2023-05-18T11:18:50.566Z,18.33
2023-05-18T11:21:32.603Z,18.50
2023-05-18T11:24:24.621Z,18.62
2023-05-18T11:26:53.466Z,18.54
2023-05-18T11:29:45.008Z,18.53
2023-05-18T11:32:30.005Z,19.02
2023-05-18T11:34:57.711Z,19.05
2023-05-18T11:37:39.368Z,19.05
2023-05-18T11:40:11.272Z,19.14
2023-05-18T11:42:38.275Z,19.19
2023-05-18T11:45:09.711Z,19.31
2023-05-18T11:47:37.790Z,19.27
2023-05-18T11:50:08.741Z,19.30
2023-05-18T11:52:51.346Z,18.91
2023-05-18T11:55:21.175Z,18.63
2023-05-18T11:57:52.052Z,18.71
2023-05-18T12:00:19.964Z,18.97
2023-05-18T12:02:48.496Z,19.05
2023-05-18T12:05:15.563Z,19.10
2023-05-18T12:07:42.697Z,19.16
2023-05-18T12:10:12.098Z,19.38
2023-05-18T12:12:40.046Z,19.22
2023-05-18T12:15:08.489Z,19.34
2023-05-18T12:17:43.022Z,19.46
2023-05-18T12:20:19.360Z,19.25
2023-05-18T12:22:52.085Z,18.89
2023-05-18T12:25:19.740Z,18.95
2023-05-18T12:27:49.593Z,19.08
2023-05-18T12:30:16.060Z,18.95
2023-05-18T12:32:51.013Z,19.11
2023-05-18T12:35:22.435Z,19.17
2023-05-18T12:37:49.296Z,19.11
2023-05-18T12:40:17.773Z,18.96
2023-05-18T12:43:00.190Z,19.07
2023-05-18T12:45:28.507Z,18.92
2023-05-18T12:47:56.202Z,18.73
2023-05-18T12:50:28.395Z,18.60
2023-05-18T12:52:56.497Z,18.78
2023-05-18T12:55:25.321Z,18.84
2023-05-18T12:58:20.833Z,18.80
2023-05-18T13:00:48.609Z,18.97
2023-05-18T13:03:24.254Z,19.02
2023-05-18T13:06:05.249Z,18.66
2023-05-18T13:08:32.840Z,18.62
2023-05-18T13:11:13.588Z,18.87
2023-05-18T13:14:00.900Z,18.64
2023-05-18T13:16:30.063Z,18.54
2023-05-18T13:18:58.891Z,18.43
2023-05-18T13:21:25.670Z,18.52
2023-05-18T13:23:53.443Z,18.45
2023-05-18T13:26:24.847Z,18.37
2023-05-18T13:28:54.723Z,18.36
2023-05-18T13:31:22.334Z,18.44
2023-05-18T13:33:50.049Z,18.31
2023-05-18T13:36:17.572Z,18.31
2023-05-18T13:38:44.306Z,18.35
2023-05-18T13:41:12.099Z,18.25
2023-05-18T13:43:38.681Z,18.10
2023-05-18T13:46:06.051Z,17.95
2023-05-18T13:48:32.720Z,18.12
2023-05-18T13:50:59.332Z,18.27
2023-05-18T13:53:26.369Z,18.29
2023-05-18T13:55:52.966Z,18.32
2023-05-18T13:58:19.496Z,18.27
2023-05-18T14:00:46.598Z,18.23
2023-05-18T14:03:15.265Z,18.11
2023-05-18T14:05:42.061Z,18.03
2023-05-18T14:08:08.655Z,18.04
2023-05-18T14:10:35.266Z,17.92
2023-05-18T14:13:01.721Z,17.96
2023-05-18T14:15:28.186Z,18.00
2023-05-18T14:17:54.955Z,18.02
2023-05-18T14:20:21.564Z,18.02
2023-05-18T14:22:48.193Z,17.89
2023-05-18T14:25:14.743Z,17.67
2023-05-18T14:27:41.267Z,17.70
2023-05-18T14:30:08.533Z,17.67
2023-05-18T14:32:35.177Z,17.64
2023-05-18T14:35:01.655Z,17.59
2023-05-18T14:37:28.236Z,17.43
2023-05-18T14:39:54.823Z,17.32
2023-05-18T14:42:21.334Z,17.36
2023-05-18T14:44:47.940Z,17.28
2023-05-18T14:47:14.525Z,17.27
2023-05-18T14:49:41.114Z,17.34
2023-05-18T14:52:07.654Z,17.39
2023-05-18T14:54:34.245Z,17.35
2023-05-18T14:57:01.296Z,17.36
2023-05-18T14:59:27.807Z,17.34
2023-05-18T15:01:54.362Z,17.20
2023-05-18T15:04:21.949Z,17.13
2023-05-18T15:06:49.446Z,16.96
2023-05-18T15:09:16.088Z,16.90
2023-05-18T15:11:42.680Z,16.97
2023-05-18T15:14:09.311Z,17.05
2023-05-18T15:16:36.121Z,17.07
2023-05-18T15:19:04.376Z,17.07
2023-05-18T15:21:31.036Z,16.93
2023-05-18T15:23:57.546Z,16.96
2023-05-18T15:26:24.693Z,16.98
2023-05-18T15:28:51.182Z,16.94
2023-05-18T15:31:17.798Z,16.94
2023-05-18T15:33:44.382Z,16.85
2023-05-18T15:36:11.064Z,16.81
2023-05-18T15:38:37.599Z,16.78
2023-05-18T15:41:04.357Z,16.84
2023-05-18T15:43:31.133Z,16.84
2023-05-18T15:45:58.668Z,16.81
2023-05-18T15:48:25.373Z,16.89
2023-05-18T15:50:51.952Z,16.93
2023-05-18T15:53:18.531Z,16.85
2023-05-18T15:55:45.026Z,16.77
2023-05-18T15:58:13.105Z,16.72
2023-05-18T16:00:39.597Z,16.69
2023-05-18T16:03:06.249Z,16.63
2023-05-18T16:05:32.858Z,16.56
2023-05-18T16:07:59.753Z,16.63
2023-05-18T16:10:26.469Z,16.60
2023-05-18T16:12:53.010Z,16.66
2023-05-18T16:15:24.185Z,16.65
2023-05-18T16:17:50.817Z,16.62
2023-05-18T16:20:18.324Z,16.47
2023-05-18T16:22:45.424Z,16.48
2023-05-18T16:25:11.969Z,16.56
2023-05-18T16:27:38.465Z,16.53
2023-05-18T16:30:05.582Z,16.61
2023-05-18T16:32:32.229Z,16.65
2023-05-18T16:34:58.750Z,16.63
2023-05-18T16:37:25.431Z,16.56
2023-05-18T16:39:51.924Z,16.56
2023-05-18T16:42:19.395Z,16.58
2023-05-18T16:44:45.951Z,16.53
2023-05-18T16:47:12.452Z,16.53
2023-05-18T16:49:39.100Z,16.50
2023-05-18T16:52:06.064Z,16.44
2023-05-18T16:54:32.562Z,16.46
2023-05-18T16:56:59.039Z,16.54
2023-05-18T16:59:25.527Z,16.53
2023-05-18T17:01:52.083Z,16.41
2023-05-18T17:04:18.762Z,16.36
2023-05-18T17:06:45.502Z,16.33
2023-05-18T17:09:12.072Z,16.36
2023-05-18T17:11:38.537Z,16.24
2023-05-18T17:14:05.008Z,16.22
2023-05-18T17:16:33.945Z,16.20
2023-05-18T17:19:00.643Z,16.21
2023-05-18T17:21:28.281Z,16.26
2023-05-18T17:23:55.066Z,16.29
2023-05-18T17:26:22.221Z,16.29
2023-05-18T17:28:48.819Z,16.32
2023-05-18T17:31:15.563Z,16.31
2023-05-18T17:33:47.014Z,16.31
2023-05-18T17:36:17.092Z,16.30
2023-05-18T17:38:44.564Z,16.28
2023-05-18T17:41:11.038Z,16.20
2023-05-18T17:43:37.724Z,16.17
2023-05-18T17:46:04.335Z,16.11
2023-05-18T17:48:30.966Z,16.08
2023-05-18T17:50:57.486Z,16.06
2023-05-18T17:53:23.993Z,16.07
2023-05-18T17:55:51.009Z,15.93
2023-05-18T17:58:17.511Z,15.92
2023-05-18T18:00:44.006Z,15.88
2023-05-18T18:03:10.693Z,15.75
2023-05-18T18:05:37.328Z,15.73
2023-05-18T18:08:04.549Z,15.70
2023-05-18T18:10:33.155Z,15.64
2023-05-18T18:12:59.848Z,15.59
2023-05-18T18:15:27.515Z,15.52
2023-05-18T18:17:54.628Z,15.50
2023-05-18T18:20:21.570Z,15.52
2023-05-18T18:22:48.039Z,15.52
2023-05-18T18:25:14.701Z,15.50
2023-05-18T18:27:41.268Z,15.52
2023-05-18T18:30:08.215Z,15.55
2023-05-18T18:32:34.770Z,15.47
2023-05-18T18:35:01.656Z,15.43
2023-05-18T18:37:28.391Z,15.39
2023-05-18T18:39:54.956Z,15.34
2023-05-18T18:42:21.742Z,15.32
2023-05-18T18:44:48.346Z,15.26
2023-05-18T18:47:14.862Z,15.19
2023-05-18T18:49:41.369Z,15.16
2023-05-18T18:52:07.849Z,15.09
2023-05-18T18:54:34.306Z,15.04
2023-05-18T18:57:02.050Z,15.01
2023-05-18T18:59:28.590Z,14.96
2023-05-18T19:01:55.538Z,14.92
2023-05-18T19:04:22.521Z,14.86
2023-05-18T19:06:49.011Z,14.79
2023-05-18T19:09:15.534Z,14.76
2023-05-18T19:11:42.010Z,14.69
2023-05-18T19:14:08.562Z,14.65
2023-05-18T19:16:35.325Z,14.56
2023-05-18T19:19:08.465Z,14.47
2023-05-18T19:21:36.126Z,14.40
2023-05-18T19:24:03.824Z,14.33
2023-05-18T19:26:31.783Z,14.27
2023-05-18T19:28:59.066Z,14.17
2023-05-18T19:31:26.579Z,14.10
2023-05-18T19:33:53.234Z,14.06
2023-05-18T19:36:19.794Z,13.97
2023-05-18T19:38:52.345Z,13.91
2023-05-18T19:41:24.425Z,13.82
2023-05-18T19:43:51.150Z,13.74
2023-05-18T19:46:17.859Z,13.64
2023-05-18T19:48:44.424Z,13.55
2023-05-18T19:51:11.282Z,13.48
2023-05-18T19:53:37.873Z,13.40
2023-05-18T19:56:04.500Z,13.33
2023-05-18T19:58:31.061Z,13.26
2023-05-18T20:00:57.831Z,13.20
2023-05-18T20:03:25.125Z,13.14
2023-05-18T20:05:51.731Z,13.07
2023-05-18T20:08:18.302Z,13.03
2023-05-18T20:10:44.781Z,12.97
2023-05-18T20:13:11.403Z,12.90
2023-05-18T20:15:37.947Z,12.83
2023-05-18T20:18:06.791Z,12.79
2023-05-18T20:20:35.538Z,12.75
2023-05-18T20:23:03.137Z,12.69
2023-05-18T20:25:34.966Z,12.64
2023-05-18T20:28:03.301Z,12.59
2023-05-18T20:30:30.323Z,12.53
2023-05-18T20:33:00.044Z,12.49
2023-05-18T20:35:26.588Z,12.45
2023-05-18T20:37:55.768Z,12.40
2023-05-18T20:40:23.295Z,12.34
2023-05-18T20:42:54.192Z,12.31
2023-05-18T20:45:22.311Z,12.27
2023-05-18T20:47:50.922Z,12.22
2023-05-18T20:50:18.656Z,12.17
2023-05-18T20:52:46.149Z,12.12
2023-05-18T20:55:13.745Z,12.09
2023-05-18T20:57:41.361Z,12.03
2023-05-18T21:00:08.817Z,11.99
2023-05-18T21:02:36.773Z,11.96
2023-05-18T21:05:04.490Z,11.93
2023-05-18T21:07:34.316Z,11.87
2023-05-18T21:10:02.254Z,11.83
2023-05-18T21:12:28.806Z,11.76
2023-05-18T21:14:55.297Z,11.72
2023-05-18T21:17:21.810Z,11.70
2023-05-18T21:19:49.135Z,11.63
2023-05-18T21:22:15.908Z,11.56
2023-05-18T21:24:42.423Z,11.50
2023-05-18T21:27:08.932Z,11.43
2023-05-18T21:29:35.640Z,11.38
2023-05-18T21:32:02.584Z,11.31
2023-05-18T21:34:29.407Z,11.25
2023-05-18T21:36:56.458Z,11.20
2023-05-18T21:39:23.025Z,11.15
2023-05-18T21:41:49.647Z,11.11
2023-05-18T21:44:16.165Z,11.07
2023-05-18T21:46:45.929Z,11.02
2023-05-18T21:49:12.623Z,10.99
2023-05-18T21:51:39.329Z,10.93
2023-05-18T21:54:05.992Z,10.91
2023-05-18T21:56:34.573Z,10.87
2023-05-18T21:59:01.098Z,10.81
2023-05-18T22:01:27.693Z,10.76
2023-05-18T22:03:54.327Z,10.72
2023-05-18T22:06:21.059Z,10.67
2023-05-18T22:08:47.595Z,10.63
2023-05-18T22:11:14.626Z,10.56
2023-05-18T22:13:41.542Z,10.52
2023-05-18T22:16:08.039Z,10.49
2023-05-18T22:18:34.542Z,10.45
2023-05-18T22:21:01.028Z,10.38
2023-05-18T22:23:27.794Z,10.34
2023-05-18T22:25:54.455Z,10.32
2023-05-18T22:28:23.560Z,10.28
2023-05-18T22:30:53.151Z,10.23
2023-05-18T22:33:21.223Z,10.17
2023-05-18T22:35:50.761Z,10.14
2023-05-18T22:38:17.898Z,10.08
2023-05-18T22:40:45.325Z,10.02
2023-05-18T22:43:11.926Z,9.98
2023-05-18T22:45:38.433Z,9.94
2023-05-18T22:48:04.988Z,9.89
2023-05-18T22:50:31.729Z,9.86
2023-05-18T22:52:58.705Z,9.83
2023-05-18T22:55:25.288Z,9.78
2023-05-18T22:57:51.802Z,9.76
2023-05-18T23:00:18.617Z,9.73
2023-05-18T23:02:45.477Z,9.67
2023-05-18T23:05:13.629Z,9.64
2023-05-18T23:07:41.763Z,9.60
2023-05-18T23:10:11.188Z,9.58
2023-05-18T23:12:38.244Z,9.54
2023-05-18T23:15:05.675Z,9.48
2023-05-18T23:17:33.080Z,9.45
2023-05-18T23:20:03.171Z,9.41
2023-05-18T23:22:29.638Z,9.38
2023-05-18T23:24:56.153Z,9.32
2023-05-18T23:27:22.663Z,9.28
2023-05-18T23:29:49.173Z,9.24
2023-05-18T23:32:15.792Z,9.22
2023-05-18T23:34:42.617Z,9.20
2023-05-18T23:37:12.519Z,9.16
2023-05-18T23:39:41.303Z,9.11
2023-05-18T23:42:08.251Z,9.07
2023-05-18T23:44:35.151Z,9.02
2023-05-18T23:47:02.115Z,8.96
2023-05-18T23:49:29.417Z,8.92
2023-05-18T23:52:01.845Z,8.90
2023-05-18T23:54:28.907Z,8.84
2023-05-18T23:56:56.105Z,8.77
2023-05-18T23:59:22.947Z,8.72
